Time;durP1;ratioP1;P1;durP2;ratioP2;P2;SDS_P1;SDS_P2;PMS_P1;PMS_P2;Temp;Humidity;BMP_temperature;BMP_pressure;BME280_temperature;BME280_humidity;BME280_pressure;Samples;Min_cycle;Max_cycle;Signal;HPM_P1;HPM_P2
2021/08/03 00:04:39;;;;;;;2.53;2.33;;;19.40;41.20;;;;;;10454831;28;20235;-71
2021/08/03 00:09:44;;;;;;;2.13;2.03;;;19.50;41.10;;;;;;10454178;28;20223;-73
2021/08/03 00:14:49;;;;;;;3.77;2.20;;;19.50;40.90;;;;;;10453243;28;20228;-73
2021/08/03 00:19:54;;;;;;;3.33;1.87;;;19.60;40.50;;;;;;10455200;28;20228;-73
2021/08/03 00:24:59;;;;;;;2.97;2.40;;;19.50;40.20;;;;;;10457623;28;20236;-72
2021/08/03 00:30:03;;;;;;;2.37;2.17;;;19.50;40.50;;;;;;10460440;28;20228;-72
2021/08/03 00:35:07;;;;;;;2.00;1.90;;;19.40;40.20;;;;;;10460405;28;20224;-72
2021/08/03 00:40:14;;;;;;;3.30;2.20;;;19.40;40.30;;;;;;10461491;28;20256;-71
2021/08/03 00:45:17;;;;;;;2.03;1.80;;;19.40;40.60;;;;;;10462696;28;20286;-71
2021/08/03 00:50:21;;;;;;;2.03;1.83;;;19.50;40.20;;;;;;10461323;28;20243;-71
2021/08/03 00:55:26;;;;;;;2.10;2.00;;;19.40;40.10;;;;;;10460030;28;20235;-71
2021/08/03 01:00:29;;;;;;;1.93;1.80;;;19.40;40.10;;;;;;10457888;28;20312;-71
2021/08/03 01:05:38;;;;;;;2.00;1.87;;;19.20;39.80;;;;;;10459348;28;20885;-71
2021/08/03 01:10:51;;;;;;;2.43;1.97;;;19.20;40.30;;;;;;10464125;28;20594;-71
2021/08/03 01:16:00;;;;;;;3.27;1.93;;;19.10;40.50;;;;;;10463530;28;20229;-71
2021/08/03 01:21:29;;;;;;;2.00;1.70;;;19.10;39.90;;;;;;10464846;28;20599;-71
2021/08/03 01:26:58;;;;;;;2.00;1.80;;;19.00;40.00;;;;;;10465761;28;20236;-72
2021/08/03 01:32:06;;;;;;;1.67;1.57;;;19.00;39.90;;;;;;10459299;28;20232;-72
2021/08/03 01:37:15;;;;;;;2.23;1.70;;;18.80;39.90;;;;;;10462177;28;20310;-72
2021/08/03 01:42:21;;;;;;;1.67;1.57;;;18.70;40.20;;;;;;10463915;28;20228;-69
2021/08/03 01:47:28;;;;;;;1.60;1.50;;;18.60;39.90;;;;;;10456416;28;20598;-69
2021/08/03 01:52:34;;;;;;;2.60;1.97;;;18.60;40.30;;;;;;10461421;28;20236;-73
2021/08/03 01:57:41;;;;;;;2.27;1.80;;;18.50;40.30;;;;;;10464577;28;20228;-73
2021/08/03 02:02:46;;;;;;;1.90;1.77;;;18.50;40.20;;;;;;10469620;28;20220;-73
2021/08/03 02:07:51;;;;;;;1.57;1.47;;;18.40;40.30;;;;;;10455381;28;20709;-73
2021/08/03 02:12:55;;;;;;;2.83;1.67;;;18.30;40.30;;;;;;10456521;28;20229;-73
2021/08/03 02:18:00;;;;;;;1.97;1.70;;;18.20;40.30;;;;;;10460183;28;20233;-73
2021/08/03 02:23:03;;;;;;;2.53;1.50;;;18.20;40.40;;;;;;10419783;28;20241;-73
2021/08/03 02:28:06;;;;;;;1.93;1.70;;;18.20;40.20;;;;;;10423493;28;20573;-71
2021/08/03 02:33:21;;;;;;;1.60;1.50;;;18.20;40.20;;;;;;10457821;28;20261;-71
2021/08/03 02:38:29;;;;;;;2.43;1.60;;;18.20;41.50;;;;;;10461254;28;20225;-71
2021/08/03 02:43:33;;;;;;;1.60;1.50;;;18.20;40.40;;;;;;10456780;28;20231;-71
2021/08/03 02:48:40;;;;;;;1.70;1.57;;;18.20;40.10;;;;;;10456551;28;20588;-69
2021/08/03 02:53:47;;;;;;;2.43;1.77;;;18.10;40.40;;;;;;10468723;28;20224;-73
2021/08/03 02:58:56;;;;;;;2.23;1.60;;;18.10;40.10;;;;;;10451095;28;20225;-73
2021/08/03 03:04:09;;;;;;;1.73;1.53;;;18.10;40.30;;;;;;10454417;28;20717;-72
2021/08/03 03:09:14;;;;;;;1.70;1.47;;;18.10;40.40;;;;;;10457592;28;20229;-72
2021/08/03 03:14:17;;;;;;;1.70;1.60;;;18.00;40.10;;;;;;10459152;28;20343;-71
2021/08/03 03:19:23;;;;;;;2.10;1.90;;;17.90;39.90;;;;;;10458324;28;20224;-71
2021/08/03 03:24:29;;;;;;;3.07;2.00;;;17.90;40.50;;;;;;10455707;28;20236;-71
2021/08/03 03:29:36;;;;;;;2.23;1.97;;;17.80;40.10;;;;;;10450344;28;20228;-72
2021/08/03 03:34:43;;;;;;;3.83;1.87;;;17.80;40.30;;;;;;10454933;28;20227;-73
2021/08/03 03:39:48;;;;;;;1.90;1.80;;;17.70;40.40;;;;;;10457378;28;20716;-73
2021/08/03 03:44:52;;;;;;;1.67;1.57;;;17.60;40.10;;;;;;10456184;28;20250;-73
2021/08/03 03:50:05;;;;;;;1.60;1.50;;;17.50;40.00;;;;;;10455805;28;20224;-73
2021/08/03 03:55:12;;;;;;;2.00;1.80;;;17.50;40.60;;;;;;10457419;28;20224;-72
2021/08/03 04:00:18;;;;;;;1.90;1.80;;;17.40;40.40;;;;;;10455335;28;20749;-73
2021/08/03 04:05:25;;;;;;;4.13;1.63;;;17.50;40.40;;;;;;10465901;28;20224;-69
2021/08/03 04:10:32;;;;;;;1.77;1.37;;;17.40;40.40;;;;;;10461219;28;20224;-69
2021/08/03 04:15:36;;;;;;;1.70;1.60;;;17.40;40.60;;;;;;10461757;28;20232;-69
2021/08/03 04:20:41;;;;;;;2.00;1.90;;;17.40;40.30;;;;;;10465357;28;20224;-68
2021/08/03 04:25:44;;;;;;;2.00;1.90;;;17.40;40.40;;;;;;10466083;28;20224;-69
2021/08/03 04:30:48;;;;;;;2.37;1.67;;;17.40;40.40;;;;;;10458456;28;20220;-68
2021/08/03 04:35:54;;;;;;;2.20;1.50;;;17.40;40.40;;;;;;10457121;28;20235;-69
2021/08/03 04:40:57;;;;;;;2.90;1.80;;;17.40;40.70;;;;;;10458942;28;20240;-69
2021/08/03 04:46:00;;;;;;;2.43;1.70;;;17.40;40.50;;;;;;10459319;28;20236;-69
2021/08/03 04:51:06;;;;;;;1.70;1.60;;;17.40;40.60;;;;;;10458577;28;20232;-69
2021/08/03 04:56:09;;;;;;;1.83;1.50;;;17.40;40.90;;;;;;10457514;28;20731;-68
2021/08/03 05:01:13;;;;;;;2.03;1.50;;;17.40;41.00;;;;;;10454198;28;20225;-69
2021/08/03 05:06:18;;;;;;;1.93;1.50;;;17.50;41.10;;;;;;10458178;28;20243;-69
2021/08/03 05:11:22;;;;;;;1.80;1.53;;;17.50;41.20;;;;;;10458051;28;20308;-69
2021/08/03 05:16:28;;;;;;;3.50;1.80;;;17.60;41.40;;;;;;10456055;28;20579;-73
2021/08/03 05:21:33;;;;;;;2.43;2.00;;;17.60;41.50;;;;;;10463324;28;20228;-73
2021/08/03 05:26:36;;;;;;;3.40;1.97;;;17.70;42.10;;;;;;10461463;28;20666;-74
2021/08/03 05:31:40;;;;;;;4.77;1.90;;;17.70;41.70;;;;;;10465187;28;20225;-73
2021/08/03 05:36:44;;;;;;;1.90;1.80;;;17.70;42.20;;;;;;10461150;28;20240;-73
2021/08/03 05:41:47;;;;;;;2.00;1.90;;;17.80;42.60;;;;;;10465924;28;20221;-77
2021/08/03 05:46:51;;;;;;;2.20;1.83;;;17.80;42.40;;;;;;10458618;28;20225;-69
2021/08/03 05:51:56;;;;;;;2.50;2.20;;;17.90;42.60;;;;;;10457906;28;20232;-68
2021/08/03 05:56:59;;;;;;;2.97;1.80;;;18.00;43.40;;;;;;10458656;28;20240;-73
2021/08/03 06:02:03;;;;;;;2.00;1.77;;;18.20;43.00;;;;;;10456162;28;20231;-72
2021/08/03 06:07:10;;;;;;;2.30;2.10;;;18.30;42.90;;;;;;10459159;28;20315;-72
2021/08/03 06:12:14;;;;;;;2.00;1.90;;;18.50;43.60;;;;;;10459596;28;20238;-75
2021/08/03 06:17:19;;;;;;;3.83;2.17;;;18.60;43.00;;;;;;10459874;28;20944;-75
2021/08/03 06:22:23;;;;;;;2.37;2.10;;;18.70;42.90;;;;;;10454228;28;20254;-74
2021/08/03 06:27:26;;;;;;;4.57;2.37;;;18.80;43.30;;;;;;10455911;28;20606;-75
2021/08/03 06:32:31;;;;;;;2.10;2.00;;;18.90;43.00;;;;;;10439887;28;20240;-74
2021/08/03 06:37:36;;;;;;;2.10;1.90;;;19.00;43.40;;;;;;10454842;28;20625;-74
2021/08/03 06:42:46;;;;;;;2.47;1.97;;;19.20;43.50;;;;;;10452486;28;20232;-74
2021/08/03 06:48:03;;;;;;;3.50;2.13;;;19.30;43.60;;;;;;10453740;28;20221;-69
2021/08/03 06:53:10;;;;;;;1.90;1.80;;;19.40;43.60;;;;;;10457415;28;20220;-70
2021/08/03 06:58:22;;;;;;;2.20;2.00;;;19.60;43.00;;;;;;10459173;28;20732;-69
2021/08/03 07:03:26;;;;;;;1.80;1.70;;;19.70;43.00;;;;;;10456951;28;20231;-67
2021/08/03 07:08:34;;;;;;;2.67;1.63;;;19.80;42.60;;;;;;10456193;28;20213;-67
2021/08/03 07:13:39;;;;;;;2.33;1.90;;;20.00;43.00;;;;;;10456415;28;20323;-68
2021/08/03 07:18:43;;;;;;;1.60;1.50;;;20.10;42.60;;;;;;10456604;28;20572;-69
2021/08/03 07:23:49;;;;;;;1.67;1.57;;;20.30;41.90;;;;;;10452845;28;20656;-74
2021/08/03 07:28:52;;;;;;;1.80;1.67;;;20.40;41.80;;;;;;10456469;28;20224;-69
2021/08/03 07:33:56;;;;;;;1.87;1.77;;;20.60;41.80;;;;;;10459165;28;20231;-69
2021/08/03 07:39:04;;;;;;;1.93;1.83;;;20.70;42.00;;;;;;10461069;28;20728;-69
2021/08/03 07:44:08;;;;;;;1.73;1.63;;;20.80;41.70;;;;;;10466629;28;20239;-69
2021/08/03 07:49:11;;;;;;;1.60;1.50;;;21.00;42.00;;;;;;10467250;28;20217;-70
2021/08/03 07:54:16;;;;;;;1.57;1.47;;;21.20;42.10;;;;;;10467614;28;21181;-67
2021/08/03 07:59:19;;;;;;;4.33;1.73;;;21.50;42.10;;;;;;10470213;28;20271;-75
2021/08/03 08:04:22;;;;;;;2.37;1.80;;;21.60;42.00;;;;;;10473337;28;20283;-75
2021/08/03 08:09:27;;;;;;;2.33;1.90;;;21.80;41.80;;;;;;10464487;28;20235;-75
2021/08/03 08:14:31;;;;;;;2.07;1.97;;;22.00;41.60;;;;;;10462679;28;20970;-73
2021/08/03 08:19:35;;;;;;;2.33;1.80;;;22.10;42.10;;;;;;10473449;28;20224;-73
2021/08/03 08:24:40;;;;;;;2.33;1.93;;;22.30;41.30;;;;;;10461087;28;20994;-73
2021/08/03 08:29:43;;;;;;;1.70;1.60;;;22.40;40.80;;;;;;10464354;28;20225;-68
2021/08/03 08:34:46;;;;;;;1.80;1.70;;;22.50;40.60;;;;;;10465600;28;20870;-73
2021/08/03 08:39:50;;;;;;;1.83;1.60;;;22.60;40.20;;;;;;10464443;28;20714;-68
2021/08/03 08:44:54;;;;;;;1.97;1.77;;;22.80;39.50;;;;;;10471766;28;20227;-70
2021/08/03 08:50:03;;;;;;;1.60;1.50;;;22.90;39.80;;;;;;10462123;28;20229;-75
2021/08/03 08:55:11;;;;;;;2.30;1.77;;;23.10;39.90;;;;;;10460650;28;20224;-75
2021/08/03 09:00:15;;;;;;;2.20;1.70;;;23.20;38.80;;;;;;10459605;28;20291;-75
2021/08/03 09:05:27;;;;;;;1.53;1.43;;;23.40;39.50;;;;;;10462293;28;20221;-76
2021/08/03 09:10:38;;;;;;;1.40;1.30;;;23.50;38.30;;;;;;10460741;28;20760;-72
2021/08/03 09:15:43;;;;;;;1.60;1.50;;;23.70;37.30;;;;;;10463610;28;20221;-73
2021/08/03 09:20:48;;;;;;;1.50;1.40;;;23.90;38.70;;;;;;10457557;28;20723;-73
2021/08/03 09:25:58;;;;;;;1.50;1.40;;;24.10;37.30;;;;;;10457083;28;20220;-70
2021/08/03 09:31:04;;;;;;;1.53;1.43;;;24.20;36.00;;;;;;10454832;28;20225;-67
2021/08/03 09:36:07;;;;;;;2.50;1.40;;;24.30;35.70;;;;;;10455561;28;20731;-67
2021/08/03 09:41:12;;;;;;;1.43;1.30;;;24.40;36.90;;;;;;10459659;28;20228;-67
2021/08/03 09:46:21;;;;;;;1.50;1.40;;;24.50;36.00;;;;;;10460848;28;20229;-67
2021/08/03 09:51:24;;;;;;;1.60;1.50;;;24.50;35.20;;;;;;10456220;28;20225;-67
2021/08/03 09:56:36;;;;;;;1.30;1.30;;;24.50;36.00;;;;;;10455530;28;20229;-70
2021/08/03 10:01:41;;;;;;;1.77;1.50;;;24.50;34.90;;;;;;10455977;28;20228;-70
2021/08/03 10:06:45;;;;;;;1.90;1.20;;;24.50;35.20;;;;;;10453415;28;20249;-70
2021/08/03 10:11:50;;;;;;;2.53;1.50;;;24.50;35.70;;;;;;10457383;28;20220;-70
2021/08/03 10:17:01;;;;;;;1.50;1.30;;;24.50;35.00;;;;;;10459735;28;20709;-73
2021/08/03 10:22:15;;;;;;;1.50;1.40;;;24.50;35.80;;;;;;10457350;28;20756;-73
2021/08/03 10:27:20;;;;;;;1.83;1.40;;;24.50;34.50;;;;;;10458849;28;20220;-71
2021/08/03 10:32:45;;;;;;;1.50;1.40;;;24.60;34.90;;;;;;10455177;28;20232;-70
2021/08/03 10:38:28;;;;;;;1.50;1.40;;;24.60;35.30;;;;;;10456140;28;20232;-73
2021/08/03 10:43:51;;;;;;;1.27;1.23;;;24.70;35.30;;;;;;10456710;28;20596;-70
2021/08/03 10:48:55;;;;;;;1.13;1.13;;;24.80;34.60;;;;;;10454710;28;20760;-70
2021/08/03 10:54:00;;;;;;;1.40;1.30;;;24.80;35.20;;;;;;10452959;28;20236;-76
2021/08/03 10:59:34;;;;;;;1.40;1.30;;;24.90;33.80;;;;;;10458632;28;20247;-76
2021/08/03 11:04:57;;;;;;;1.07;1.07;;;24.90;33.50;;;;;;10461755;28;20232;-76
2021/08/03 11:10:25;;;;;;;1.67;1.30;;;25.00;33.90;;;;;;10457814;28;20229;-71
2021/08/03 11:15:42;;;;;;;1.50;1.40;;;25.00;32.80;;;;;;10455154;28;20268;-70
2021/08/03 11:21:13;;;;;;;1.43;1.33;;;25.00;33.90;;;;;;10451464;28;20229;-70
2021/08/03 11:26:20;;;;;;;1.40;1.30;;;24.90;33.60;;;;;;10451365;28;20232;-70
2021/08/03 11:31:38;;;;;;;1.77;1.13;;;24.90;33.40;;;;;;10454301;28;20235;-70
2021/08/03 11:36:57;;;;;;;1.67;1.40;;;25.00;33.00;;;;;;10457109;28;20224;-70
2021/08/03 11:42:02;;;;;;;3.03;2.83;;;25.10;30.70;;;;;;10450014;28;20229;-69
2021/08/03 11:47:08;;;;;;;1.60;1.50;;;25.10;32.40;;;;;;10451336;28;20255;-68
2021/08/03 11:52:20;;;;;;;1.17;1.17;;;25.10;31.90;;;;;;10452831;28;20224;-67
2021/08/03 11:57:27;;;;;;;1.30;1.30;;;25.20;31.80;;;;;;10446179;28;20231;-67
2021/08/03 12:02:32;;;;;;;2.20;1.37;;;25.30;32.30;;;;;;10451451;28;20233;-70
2021/08/03 12:07:37;;;;;;;1.10;1.00;;;25.40;31.50;;;;;;10451569;28;20652;-70
2021/08/03 12:12:46;;;;;;;1.27;1.23;;;25.50;32.20;;;;;;10445429;28;20311;-70
2021/08/03 12:18:02;;;;;;;1.20;1.20;;;25.60;31.00;;;;;;10450219;28;20229;-70
2021/08/03 12:23:21;;;;;;;1.20;1.20;;;25.70;30.60;;;;;;10452373;28;20603;-71
2021/08/03 12:28:33;;;;;;;1.20;1.17;;;25.80;30.30;;;;;;10458391;28;20716;-70
2021/08/03 12:33:38;;;;;;;1.37;1.27;;;25.90;29.90;;;;;;10461884;28;20229;-70
2021/08/03 12:38:41;;;;;;;1.30;1.30;;;26.00;30.50;;;;;;10458469;28;20232;-70
2021/08/03 12:43:45;;;;;;;1.50;1.40;;;26.00;30.80;;;;;;10458513;28;20229;-70
2021/08/03 12:48:53;;;;;;;1.47;1.37;;;26.10;31.00;;;;;;10461657;28;20716;-70
2021/08/03 12:54:12;;;;;;;1.10;1.00;;;26.10;29.30;;;;;;10462988;28;20712;-70
2021/08/03 12:59:40;;;;;;;1.37;1.37;;;26.10;29.90;;;;;;10456937;28;20593;-70
2021/08/03 13:04:46;;;;;;;1.63;1.30;;;26.10;28.90;;;;;;10456061;28;20238;-70
2021/08/03 13:09:49;;;;;;;1.43;1.40;;;26.10;29.20;;;;;;10459212;28;20217;-70
2021/08/03 13:14:52;;;;;;;2.43;1.20;;;26.00;29.60;;;;;;10458213;28;20621;-70
2021/08/03 13:19:57;;;;;;;1.70;1.60;;;25.90;29.80;;;;;;10460975;28;20610;-70
2021/08/03 13:25:00;;;;;;;1.60;1.50;;;25.80;29.20;;;;;;10455998;28;20229;-70
2021/08/03 13:30:05;;;;;;;1.47;1.37;;;25.70;29.80;;;;;;10460273;28;20216;-70
2021/08/03 13:35:11;;;;;;;1.70;1.60;;;25.70;30.10;;;;;;10456343;28;20231;-70
2021/08/03 13:40:14;;;;;;;1.53;1.47;;;25.60;29.90;;;;;;10454643;28;20267;-70
2021/08/03 13:45:18;;;;;;;1.67;1.50;;;25.60;30.10;;;;;;10455182;28;20231;-70
2021/08/03 13:50:22;;;;;;;3.53;1.50;;;25.50;30.10;;;;;;10454651;28;20270;-70
2021/08/03 13:55:26;;;;;;;2.00;1.73;;;25.40;29.90;;;;;;10461160;28;20764;-70
2021/08/03 14:00:29;;;;;;;2.23;1.83;;;25.20;30.80;;;;;;10457361;28;20231;-71
2021/08/03 14:05:34;;;;;;;2.60;1.80;;;24.90;32.00;;;;;;10458656;28;20236;-70
2021/08/03 14:10:37;;;;;;;1.63;1.53;;;24.70;32.70;;;;;;10457919;28;20572;-70
2021/08/03 14:15:40;;;;;;;1.90;1.80;;;24.60;33.50;;;;;;10455274;28;20604;-70
2021/08/03 14:20:45;;;;;;;2.43;1.80;;;24.60;33.50;;;;;;10458941;28;20578;-70
2021/08/03 14:25:48;;;;;;;1.80;1.70;;;24.60;34.70;;;;;;10457288;28;20594;-70
2021/08/03 14:30:52;;;;;;;1.93;1.83;;;24.70;34.70;;;;;;10459396;28;20236;-70
2021/08/03 14:35:56;;;;;;;1.60;1.50;;;24.70;34.40;;;;;;10457848;28;20216;-70
2021/08/03 14:40:59;;;;;;;1.97;1.87;;;24.70;34.40;;;;;;10456733;28;20228;-70
2021/08/03 14:46:02;;;;;;;1.73;1.63;;;24.70;33.90;;;;;;10456087;28;20232;-70
2021/08/03 14:51:08;;;;;;;2.00;1.80;;;24.80;33.90;;;;;;10451387;28;20212;-72
2021/08/03 14:56:11;;;;;;;1.53;1.50;;;24.80;33.30;;;;;;10450325;28;20228;-74
2021/08/03 15:01:14;;;;;;;1.37;1.37;;;24.90;33.60;;;;;;10452879;28;20228;-73
2021/08/03 15:06:19;;;;;;;1.73;1.63;;;24.90;33.80;;;;;;10453677;28;20324;-73
2021/08/03 15:11:23;;;;;;;1.73;1.60;;;25.00;33.20;;;;;;10453324;28;20224;-73
2021/08/03 15:16:27;;;;;;;1.70;1.60;;;25.00;33.00;;;;;;10451756;28;20233;-73
2021/08/03 15:21:31;;;;;;;1.43;1.33;;;24.90;33.00;;;;;;10452332;28;20240;-73
2021/08/03 15:26:35;;;;;;;1.70;1.60;;;24.90;33.00;;;;;;10451893;28;20240;-73
2021/08/03 15:31:38;;;;;;;1.60;1.50;;;25.00;33.10;;;;;;10455862;28;20231;-73
2021/08/03 15:36:43;;;;;;;1.50;1.40;;;25.10;33.00;;;;;;10453513;28;20712;-70
2021/08/03 15:41:46;;;;;;;1.67;1.57;;;25.10;32.20;;;;;;10457472;28;20295;-72
2021/08/03 15:46:49;;;;;;;1.60;1.50;;;25.00;32.30;;;;;;10455078;28;20243;-72
2021/08/03 15:51:54;;;;;;;1.70;1.60;;;24.90;32.60;;;;;;10453512;28;20228;-72
2021/08/03 15:56:57;;;;;;;1.50;1.40;;;24.90;32.60;;;;;;10455694;28;20232;-72
2021/08/03 16:02:00;;;;;;;1.30;1.30;;;24.90;32.70;;;;;;10464687;28;20224;-72
2021/08/03 16:07:05;;;;;;;2.33;1.40;;;24.80;32.50;;;;;;10462194;28;20224;-70
2021/08/03 16:12:08;;;;;;;2.37;2.17;;;24.70;31.80;;;;;;10455729;28;20561;-68
2021/08/03 16:17:16;;;;;;;1.50;1.37;;;24.70;31.60;;;;;;10462692;28;20235;-68
2021/08/03 16:22:21;;;;;;;1.30;1.30;;;24.50;31.40;;;;;;10461574;28;20228;-68
2021/08/03 16:27:24;;;;;;;3.23;1.50;;;24.30;31.30;;;;;;10465409;28;20228;-68
2021/08/03 16:32:30;;;;;;;1.97;1.40;;;24.20;32.00;;;;;;10456632;28;20647;-68
2021/08/03 16:37:37;;;;;;;1.60;1.50;;;24.10;32.60;;;;;;10458243;28;20221;-68
2021/08/03 16:42:40;;;;;;;1.53;1.43;;;23.90;32.90;;;;;;10459994;28;20221;-68
2021/08/03 16:47:45;;;;;;;1.53;1.43;;;23.70;33.20;;;;;;10460922;28;20588;-67
2021/08/03 16:52:49;;;;;;;1.53;1.43;;;23.50;33.80;;;;;;10469287;28;20720;-70
2021/08/03 16:57:53;;;;;;;1.50;1.40;;;23.30;34.50;;;;;;10457803;28;20728;-70
2021/08/03 17:03:10;;;;;;;1.40;1.30;;;23.10;34.30;;;;;;10460412;28;20229;-70
2021/08/03 17:08:24;;;;;;;1.40;1.30;;;22.90;35.20;;;;;;10455374;28;20220;-70
2021/08/03 17:13:40;;;;;;;1.63;1.53;;;22.70;35.40;;;;;;10461173;28;20237;-72
2021/08/03 17:18:50;;;;;;;2.30;2.17;;;22.60;35.60;;;;;;10458702;28;20228;-72
2021/08/03 17:24:08;;;;;;;3.53;2.53;;;22.50;35.70;;;;;;10462818;28;20233;-72
2021/08/03 17:29:12;;;;;;;8.87;8.07;;;22.30;35.60;;;;;;10458053;28;20271;-72
2021/08/03 17:34:15;;;;;;;5.90;5.30;;;22.20;35.60;;;;;;10457526;28;20228;-72
2021/08/03 17:39:20;;;;;;;3.00;2.80;;;22.10;35.80;;;;;;10455278;28;20232;-72
2021/08/03 17:44:25;;;;;;;2.13;1.90;;;22.00;36.60;;;;;;10449479;28;20229;-72
2021/08/03 17:49:29;;;;;;;2.83;1.80;;;21.90;36.80;;;;;;10449598;28;20228;-72
2021/08/03 17:54:34;;;;;;;1.93;1.83;;;21.90;36.50;;;;;;10447572;28;20236;-72
2021/08/03 17:59:38;;;;;;;2.00;1.70;;;21.80;37.20;;;;;;10452790;28;20306;-72
2021/08/03 18:04:42;;;;;;;1.70;1.60;;;21.70;37.00;;;;;;10450573;28;20220;-72
2021/08/03 18:09:48;;;;;;;1.67;1.57;;;21.70;37.00;;;;;;10455955;28;20221;-72
2021/08/03 18:14:52;;;;;;;1.43;1.33;;;21.70;38.00;;;;;;10458858;28;20228;-72
2021/08/03 18:19:56;;;;;;;1.80;1.70;;;21.60;37.30;;;;;;10456554;28;20282;-72
2021/08/03 18:25:01;;;;;;;1.53;1.37;;;21.50;37.80;;;;;;10453532;28;20236;-68
2021/08/03 18:30:08;;;;;;;1.90;1.80;;;21.50;37.80;;;;;;10458486;28;20213;-68
2021/08/03 19:06:32;;;;;;;1.80;1.70;;;21.00;37.40;;;;;;10345061;28;20234;-75
2021/08/03 19:11:41;;;;;;;1.60;1.50;;;20.80;37.60;;;;;;10378834;28;20229;-77
2021/08/03 19:16:47;;;;;;;1.90;1.70;;;20.80;37.80;;;;;;10382962;28;20348;-76
2021/08/03 19:21:53;;;;;;;1.87;1.77;;;20.80;37.70;;;;;;10391528;28;20325;-77
2021/08/03 19:26:57;;;;;;;1.90;1.70;;;20.70;38.00;;;;;;10391680;28;20233;-77
2021/08/03 19:32:00;;;;;;;3.17;1.70;;;20.70;37.60;;;;;;10399533;28;20249;-77
2021/08/03 19:37:05;;;;;;;1.67;1.57;;;20.70;37.70;;;;;;10383875;28;20234;-76
2021/08/03 19:42:10;;;;;;;1.50;1.40;;;20.60;38.10;;;;;;10390658;28;20238;-77
2021/08/03 19:47:19;;;;;;;1.60;1.50;;;20.50;37.90;;;;;;10376348;28;20244;-77
2021/08/03 19:52:24;;;;;;;2.63;1.40;;;20.50;38.90;;;;;;10390000;28;20247;-78
2021/08/03 19:57:31;;;;;;;2.63;1.47;;;20.50;38.40;;;;;;10396247;28;20243;-78
2021/08/03 20:02:35;;;;;;;1.50;1.40;;;20.50;38.70;;;;;;10391316;28;20244;-77
2021/08/03 20:07:41;;;;;;;1.40;1.30;;;20.50;38.10;;;;;;10393633;28;20249;-77
2021/08/03 20:12:45;;;;;;;1.40;1.30;;;20.50;38.40;;;;;;10388667;28;20241;-78
2021/08/03 20:17:49;;;;;;;1.30;1.20;;;20.50;38.20;;;;;;10382558;28;20252;-79
2021/08/03 20:22:54;;;;;;;2.23;1.80;;;20.50;38.20;;;;;;10396587;28;20300;-78
2021/08/03 20:28:00;;;;;;;1.10;1.10;;;20.40;39.00;;;;;;10381238;28;20226;-77
2021/08/03 20:33:09;;;;;;;1.30;1.20;;;20.30;38.90;;;;;;10392107;28;20280;-78
2021/08/03 20:38:14;;;;;;;1.50;1.40;;;20.30;39.30;;;;;;10388274;28;20226;-78
2021/08/03 20:43:22;;;;;;;1.50;1.40;;;20.20;39.10;;;;;;10394884;28;20298;-78
2021/08/03 20:48:26;;;;;;;1.43;1.33;;;20.20;39.40;;;;;;10385698;28;20234;-78
2021/08/03 20:53:35;;;;;;;3.73;1.47;;;20.10;39.10;;;;;;10402462;28;20238;-77
2021/08/03 20:58:40;;;;;;;1.73;1.37;;;20.10;39.60;;;;;;10393782;28;20238;-78
2021/08/03 21:03:48;;;;;;;1.47;1.37;;;20.10;39.60;;;;;;10402174;28;20321;-78
2021/08/03 21:08:57;;;;;;;1.60;1.50;;;20.00;40.10;;;;;;10416237;28;20680;-78
2021/08/03 21:14:02;;;;;;;1.30;1.20;;;20.00;39.90;;;;;;10406366;28;20290;-77
2021/08/03 21:19:06;;;;;;;1.57;1.40;;;20.00;39.40;;;;;;10376711;28;20250;-79
2021/08/03 21:24:11;;;;;;;2.30;1.50;;;20.00;39.60;;;;;;10361880;28;20234;-79
2021/08/03 21:29:14;;;;;;;3.90;1.50;;;19.90;40.20;;;;;;10384488;28;20242;-79
2021/08/03 21:34:17;;;;;;;3.10;1.73;;;19.90;39.80;;;;;;10377361;28;20325;-79
2021/08/03 21:39:22;;;;;;;1.43;1.33;;;19.90;39.80;;;;;;10366713;28;20233;-79
2021/08/03 21:44:25;;;;;;;2.57;1.90;;;19.90;40.30;;;;;;10369300;28;20238;-79
2021/08/03 21:49:28;;;;;;;1.80;1.70;;;19.90;40.00;;;;;;10364830;28;20253;-78
2021/08/03 21:54:33;;;;;;;2.33;1.70;;;20.00;40.20;;;;;;10386511;28;20930;-79
2021/08/03 21:59:36;;;;;;;3.10;1.70;;;20.00;40.80;;;;;;10405627;28;20240;-79
2021/08/03 22:04:40;;;;;;;1.80;1.70;;;20.10;40.40;;;;;;10406164;28;20724;-79
2021/08/03 22:09:44;;;;;;;3.53;1.63;;;20.10;40.20;;;;;;10402883;28;20254;-79
2021/08/03 22:14:50;;;;;;;2.80;1.70;;;20.10;40.70;;;;;;10404761;28;20317;-80
2021/08/03 22:19:53;;;;;;;1.83;1.50;;;20.00;40.20;;;;;;10410847;28;20632;-80
2021/08/03 22:24:58;;;;;;;1.57;1.47;;;20.00;40.50;;;;;;10405221;28;20234;-79
2021/08/03 22:30:01;;;;;;;1.87;1.60;;;20.00;41.00;;;;;;10401447;28;20244;-79
2021/08/03 22:35:05;;;;;;;1.80;1.70;;;19.90;40.50;;;;;;10402393;28;20265;-79
2021/08/03 22:40:11;;;;;;;1.73;1.60;;;19.80;40.70;;;;;;10405770;28;20242;-79
2021/08/03 22:45:14;;;;;;;1.77;1.67;;;19.80;41.30;;;;;;10402912;28;20309;-79
2021/08/03 22:50:17;;;;;;;2.40;1.43;;;19.70;40.70;;;;;;10405253;28;20240;-79
2021/08/03 22:55:22;;;;;;;1.70;1.60;;;19.70;40.80;;;;;;10396448;28;20232;-79
2021/08/03 23:00:26;;;;;;;2.20;1.50;;;19.60;41.30;;;;;;10402382;28;20901;-80
2021/08/03 23:05:29;;;;;;;3.73;1.60;;;19.50;40.80;;;;;;10402766;28;20241;-79
2021/08/03 23:10:33;;;;;;;1.70;1.57;;;19.50;40.90;;;;;;10396357;28;20233;-79
2021/08/03 23:15:37;;;;;;;1.60;1.50;;;19.40;41.50;;;;;;10404834;28;20229;-79
2021/08/03 23:20:40;;;;;;;2.80;1.70;;;19.30;41.00;;;;;;10394966;28;20229;-79
2021/08/03 23:25:45;;;;;;;3.10;1.77;;;19.20;41.10;;;;;;10402284;28;20243;-78
2021/08/03 23:30:48;;;;;;;3.27;1.50;;;19.20;41.70;;;;;;10405889;28;20238;-79
2021/08/03 23:35:51;;;;;;;2.23;1.60;;;19.20;41.20;;;;;;10401705;28;20238;-79
2021/08/03 23:40:56;;;;;;;3.33;1.63;;;19.10;41.10;;;;;;10399048;28;20324;-79
2021/08/03 23:45:59;;;;;;;3.47;1.73;;;19.10;41.40;;;;;;10398969;28;20735;-79
2021/08/03 23:51:03;;;;;;;1.90;1.80;;;19.10;41.10;;;;;;10366376;28;20235;-79
2021/08/03 23:56:08;;;;;;;2.70;1.87;;;19.10;41.30;;;;;;10351103;28;20948;-79
